Skip Navigation Links
NOAA logo - Click to go to the NOAA homepage
NOAA's National Weather Service
Alaska Aviation Weather Unit
  NWS logo - Click to go to the NWS homepage
Left Navbar Graphic     12 AKDT = 20 GMT

   
NOAA is celebrating 200 years of science, service, and stewardship. Visit the NOAA 200th celebration Web site to learn more.
USA.gov is the U.S. Government's official Web portal to all Federal, state and local government Web resources and services.
Facebook
NWS on Facebook

Important Change Regarding the AAWU Web Presence

 

Over the last several months, the AAWU has been working to navigate its webpages to a nationally supported server. Security, as well as other needs, have necessitated the change.  We have been given an extension for the site changeover while we diligently work at addressing feedback received. As of July 14, 2017, aawu.arh.noaa.gov will be discontinued. The new AAWU web address is weather.gov/aawu. It is now live and will run in-parallel with the old site until it is discontinued on July 14, 2017. Please continue to send any feedback or questions regarding the new webpages to nws.ar.aawu.webauthors@noaa.gov.  Thank you for your patience during this time of transition.
AAWU Home :: Display TAF Add Bookmark
SPECI PASK 251421Z AUTO 12003KT 10SM FEW009 SCT015 OVC039 13/12 A2991
     RMK AO2 $=

SPECI PASK 251425Z AUTO 00000KT 10SM BKN013 OVC041 13/12 A2990 RMK AO2
     $=

METAR PASK 251456Z AUTO 09005KT 10SM OVC011 13/12 A2990 RMK AO2
 SLP124 T01330122 56004 $=

SPECI PASK 251517Z AUTO 10004KT 10SM BKN015 OVC019 13/12 A2990 RMK
 AO2 $=

SPECI PASK 251544Z AUTO 08007KT 10SM FEW015 BKN043 OVC055 13/12
 A2990 RMK AO2 $=

METAR PASK 251556Z AUTO 08006KT 10SM BKN043 OVC055 13/12 A2990 RMK
 AO2 SLP121 T01280117 $=

SPECI PASK 251612Z AUTO 08007KT 10SM FEW007 BKN041 BKN055 13/11
 A2989 RMK AO2 $=

PASK 251656Z AUTO 09005KT 10SM FEW009 SCT013 OVC041 13/12 A2989
     RMK AO2 SLP119 T01280117 $=

SPECI PASK 251706Z AUTO 09006KT 10SM BKN011 OVC041 13/12 A2989 RMK AO2
     $=

SPECI PASK 251745Z AUTO 12005KT 10SM SCT011 OVC041 14/12 A2989 RMK AO2
     $=

METAR PASK 251756Z AUTO 12006KT 10SM FEW011 BKN018 OVC041 14/12 A2989
     RMK AO2 SLP118 T01390117 10139 20128 56003 $=

SPECI PASK 251808Z AUTO 13004KT 10SM SCT018 BKN043 14/11 A2989 RMK AO2
     $=

METAR PASK 251856Z AUTO 10003KT 10SM -RA 14/12 A2988 RMK AO2 RAB33
     SLP116 T01390117 $=

METAR PASK 251956Z AUTO 06003KT 10SM -RA OVC036 14/11 A2988 RMK AO2
     SLP115 P0000 T01390111 $=


NOAA's National Weather Service
Alaska Aviation Weather Unit
6930 Sand Lake Road
Anchorage, AK 99502-1845
Disclaimer
Credits
Glossary
Privacy Policy
About Us
Career Opportunities
Contact AAWU Internet Services Site last modified: April, 17th 2012